Weather at Armour Heights Field [CLOSED]

Public forecast

Using degrees Celsius for public forecast. Weather courtesy of forecast.io.

Closest aviation weather report (METAR) to Armour Heights Field

Closest report is Billy Bishop Toronto City Centre Airport, 6.9 nm (12.8 km) S. Retrieved 2021/07/24 17:00 UTC (5 minutes ago):

CYTZ 241700Z AUTO 08004KT 9SM SCT055 SCT071 BKN140 22/19 A2998 RMK SLP155 DENSITY ALT 1100FT

Closest aviation forecast (TAF) to Armour Heights Field

Closest forecast is Billy Bishop Toronto City Centre Airport, 6.9 nm (12.8 km) S. Retrieved 2021/07/24 14:49 UTC (2 hours ago):

TAF CYTZ 241339Z 2414/2514 VRB03KT P6SM BKN220 BECMG 2414/2416 13008KT FM241700 12010KT P6SM BKN050 OVC120 FM242000 20012KT P6SM OVC040 TEMPO 2420/2424 P6SM -SHRA FM250000 23012KT 4SM SHRA BR BKN015 OVC030 PROB30 2500/2505 VRB15G30KT 11/2SM +TSRA BR BKN008 OVC015CB FM250500 25012KT P6SM SCT008 OVC015 BECMG 2506/2508 26008KT RMK FCST BASED ON AUTO OBS NXT FCST BY 242000Z